sensor_id;sensor_type;location;lat;lon;timestamp;P1;durP1;ratioP1;P2;durP2;ratioP2
9304;SDS011;4690;52.422;13.486;2023-07-31T00:05:53;2.60;;;2.03;;
9304;SDS011;4690;52.422;13.486;2023-07-31T00:08:19;3.15;;;2.10;;
9304;SDS011;4690;52.422;13.486;2023-07-31T00:10:45;2.50;;;2.15;;
9304;SDS011;4690;52.422;13.486;2023-07-31T00:13:10;4.35;;;2.10;;
9304;SDS011;4690;52.422;13.486;2023-07-31T00:15:36;3.03;;;2.22;;
9304;SDS011;4690;52.422;13.486;2023-07-31T00:18:02;3.83;;;2.20;;
9304;SDS011;4690;52.422;13.486;2023-07-31T00:20:28;4.45;;;2.22;;
9304;SDS011;4690;52.422;13.486;2023-07-31T00:22:53;2.33;;;2.10;;
9304;SDS011;4690;52.422;13.486;2023-07-31T00:25:19;2.63;;;2.05;;
9304;SDS011;4690;52.422;13.486;2023-07-31T00:27:45;4.75;;;2.70;;
9304;SDS011;4690;52.422;13.486;2023-07-31T00:30:11;4.30;;;2.50;;
9304;SDS011;4690;52.422;13.486;2023-07-31T00:32:37;3.50;;;2.45;;
9304;SDS011;4690;52.422;13.486;2023-07-31T00:35:02;3.42;;;2.38;;
9304;SDS011;4690;52.422;13.486;2023-07-31T00:37:29;4.75;;;2.67;;
9304;SDS011;4690;52.422;13.486;2023-07-31T00:39:54;2.30;;;2.10;;
9304;SDS011;4690;52.422;13.486;2023-07-31T00:42:20;7.32;;;2.72;;
9304;SDS011;4690;52.422;13.486;2023-07-31T00:44:46;3.67;;;2.40;;
9304;SDS011;4690;52.422;13.486;2023-07-31T00:47:12;2.58;;;2.13;;
9304;SDS011;4690;52.422;13.486;2023-07-31T00:49:37;2.58;;;2.38;;
9304;SDS011;4690;52.422;13.486;2023-07-31T00:52:03;3.22;;;2.38;;
9304;SDS011;4690;52.422;13.486;2023-07-31T00:54:30;2.63;;;2.42;;
9304;SDS011;4690;52.422;13.486;2023-07-31T00:56:56;3.70;;;2.50;;
9304;SDS011;4690;52.422;13.486;2023-07-31T00:59:22;2.45;;;2.25;;
9304;SDS011;4690;52.422;13.486;2023-07-31T01:01:48;3.28;;;2.47;;
9304;SDS011;4690;52.422;13.486;2023-07-31T01:04:15;3.40;;;2.40;;
9304;SDS011;4690;52.422;13.486;2023-07-31T01:06:44;4.68;;;2.70;;
9304;SDS011;4690;52.422;13.486;2023-07-31T01:09:37;4.13;;;2.75;;
9304;SDS011;4690;52.422;13.486;2023-07-31T01:12:15;3.25;;;2.50;;
9304;SDS011;4690;52.422;13.486;2023-07-31T01:17:29;4.20;;;2.50;;
9304;SDS011;4690;52.422;13.486;2023-07-31T01:19:55;3.22;;;2.47;;
9304;SDS011;4690;52.422;13.486;2023-07-31T01:22:39;4.55;;;2.80;;
9304;SDS011;4690;52.422;13.486;2023-07-31T01:28:50;3.50;;;2.70;;
9304;SDS011;4690;52.422;13.486;2023-07-31T01:31:28;3.85;;;2.63;;
9304;SDS011;4690;52.422;13.486;2023-07-31T01:33:58;3.60;;;2.80;;
9304;SDS011;4690;52.422;13.486;2023-07-31T01:36:27;3.88;;;2.92;;
9304;SDS011;4690;52.422;13.486;2023-07-31T01:38:59;3.83;;;2.70;;
9304;SDS011;4690;52.422;13.486;2023-07-31T01:41:27;3.75;;;2.90;;
9304;SDS011;4690;52.422;13.486;2023-07-31T01:43:53;6.25;;;3.00;;
9304;SDS011;4690;52.422;13.486;2023-07-31T01:46:19;3.70;;;2.80;;
9304;SDS011;4690;52.422;13.486;2023-07-31T01:48:44;4.53;;;3.13;;
9304;SDS011;4690;52.422;13.486;2023-07-31T01:51:10;3.47;;;2.60;;
9304;SDS011;4690;52.422;13.486;2023-07-31T01:53:36;3.45;;;2.70;;
9304;SDS011;4690;52.422;13.486;2023-07-31T01:56:01;3.05;;;2.63;;
9304;SDS011;4690;52.422;13.486;2023-07-31T01:58:27;4.60;;;2.97;;
9304;SDS011;4690;52.422;13.486;2023-07-31T02:00:53;4.03;;;3.03;;
9304;SDS011;4690;52.422;13.486;2023-07-31T02:03:19;4.20;;;3.03;;
9304;SDS011;4690;52.422;13.486;2023-07-31T02:05:48;5.00;;;2.95;;
9304;SDS011;4690;52.422;13.486;2023-07-31T02:08:15;4.25;;;2.80;;
9304;SDS011;4690;52.422;13.486;2023-07-31T02:10:41;5.45;;;3.08;;
9304;SDS011;4690;52.422;13.486;2023-07-31T02:13:07;6.20;;;3.25;;
9304;SDS011;4690;52.422;13.486;2023-07-31T02:15:34;4.45;;;3.40;;
9304;SDS011;4690;52.422;13.486;2023-07-31T02:18:00;3.78;;;3.17;;
9304;SDS011;4690;52.422;13.486;2023-07-31T02:20:26;6.82;;;3.35;;
9304;SDS011;4690;52.422;13.486;2023-07-31T02:22:51;4.82;;;3.50;;
9304;SDS011;4690;52.422;13.486;2023-07-31T02:25:17;5.53;;;3.50;;
9304;SDS011;4690;52.422;13.486;2023-07-31T02:27:43;5.93;;;3.42;;
9304;SDS011;4690;52.422;13.486;2023-07-31T02:30:09;4.20;;;3.80;;
9304;SDS011;4690;52.422;13.486;2023-07-31T02:32:35;5.25;;;3.65;;
9304;SDS011;4690;52.422;13.486;2023-07-31T02:35:01;6.20;;;3.53;;
9304;SDS011;4690;52.422;13.486;2023-07-31T02:37:27;6.00;;;3.30;;
9304;SDS011;4690;52.422;13.486;2023-07-31T02:39:54;6.85;;;3.80;;
9304;SDS011;4690;52.422;13.486;2023-07-31T02:42:20;5.22;;;3.63;;
9304;SDS011;4690;52.422;13.486;2023-07-31T02:44:46;4.00;;;3.50;;
9304;SDS011;4690;52.422;13.486;2023-07-31T02:47:11;4.60;;;3.20;;
9304;SDS011;4690;52.422;13.486;2023-07-31T02:49:37;4.82;;;3.78;;
9304;SDS011;4690;52.422;13.486;2023-07-31T02:52:03;3.70;;;3.40;;
9304;SDS011;4690;52.422;13.486;2023-07-31T02:54:29;4.38;;;3.55;;
9304;SDS011;4690;52.422;13.486;2023-07-31T02:56:55;4.63;;;3.75;;
9304;SDS011;4690;52.422;13.486;2023-07-31T02:59:20;5.85;;;3.80;;
9304;SDS011;4690;52.422;13.486;2023-07-31T03:01:46;5.82;;;4.13;;
9304;SDS011;4690;52.422;13.486;2023-07-31T03:04:12;5.22;;;4.15;;
9304;SDS011;4690;52.422;13.486;2023-07-31T03:06:38;5.85;;;4.30;;
9304;SDS011;4690;52.422;13.486;2023-07-31T03:09:03;5.63;;;3.85;;
9304;SDS011;4690;52.422;13.486;2023-07-31T03:11:29;4.30;;;3.90;;
9304;SDS011;4690;52.422;13.486;2023-07-31T03:13:55;4.93;;;3.90;;
9304;SDS011;4690;52.422;13.486;2023-07-31T03:16:20;5.95;;;4.43;;
9304;SDS011;4690;52.422;13.486;2023-07-31T03:18:46;4.95;;;4.40;;
9304;SDS011;4690;52.422;13.486;2023-07-31T03:21:12;5.60;;;4.50;;
9304;SDS011;4690;52.422;13.486;2023-07-31T03:23:38;6.20;;;4.50;;
9304;SDS011;4690;52.422;13.486;2023-07-31T03:26:05;5.78;;;4.18;;
9304;SDS011;4690;52.422;13.486;2023-07-31T03:28:32;5.45;;;4.07;;
9304;SDS011;4690;52.422;13.486;2023-07-31T03:30:58;6.22;;;4.20;;
9304;SDS011;4690;52.422;13.486;2023-07-31T03:33:25;6.75;;;4.55;;
9304;SDS011;4690;52.422;13.486;2023-07-31T03:35:51;4.70;;;4.03;;
9304;SDS011;4690;52.422;13.486;2023-07-31T03:38:17;6.32;;;4.32;;
9304;SDS011;4690;52.422;13.486;2023-07-31T03:40:43;6.35;;;4.07;;
9304;SDS011;4690;52.422;13.486;2023-07-31T03:43:09;4.28;;;3.65;;
9304;SDS011;4690;52.422;13.486;2023-07-31T03:45:36;5.13;;;3.75;;
9304;SDS011;4690;52.422;13.486;2023-07-31T03:48:01;5.05;;;4.10;;
9304;SDS011;4690;52.422;13.486;2023-07-31T03:50:29;5.05;;;3.75;;
9304;SDS011;4690;52.422;13.486;2023-07-31T03:52:54;4.88;;;3.65;;
9304;SDS011;4690;52.422;13.486;2023-07-31T03:55:20;6.00;;;4.32;;
9304;SDS011;4690;52.422;13.486;2023-07-31T03:57:47;4.15;;;3.75;;
9304;SDS011;4690;52.422;13.486;2023-07-31T04:00:13;4.95;;;4.18;;
9304;SDS011;4690;52.422;13.486;2023-07-31T04:02:39;4.53;;;3.78;;
9304;SDS011;4690;52.422;13.486;2023-07-31T04:05:04;8.07;;;3.97;;
9304;SDS011;4690;52.422;13.486;2023-07-31T04:07:32;6.60;;;4.22;;
9304;SDS011;4690;52.422;13.486;2023-07-31T04:09:59;5.75;;;3.83;;
9304;SDS011;4690;52.422;13.486;2023-07-31T04:12:25;5.75;;;3.90;;
9304;SDS011;4690;52.422;13.486;2023-07-31T04:14:51;7.35;;;4.20;;
9304;SDS011;4690;52.422;13.486;2023-07-31T04:17:17;5.00;;;3.80;;
9304;SDS011;4690;52.422;13.486;2023-07-31T04:19:43;6.60;;;4.10;;
9304;SDS011;4690;52.422;13.486;2023-07-31T04:22:09;5.15;;;4.10;;
9304;SDS011;4690;52.422;13.486;2023-07-31T04:24:35;6.18;;;4.15;;
9304;SDS011;4690;52.422;13.486;2023-07-31T04:27:00;6.25;;;3.95;;
9304;SDS011;4690;52.422;13.486;2023-07-31T04:29:26;4.22;;;3.80;;
9304;SDS011;4690;52.422;13.486;2023-07-31T04:31:52;6.13;;;4.13;;
9304;SDS011;4690;52.422;13.486;2023-07-31T04:34:18;5.65;;;4.05;;
9304;SDS011;4690;52.422;13.486;2023-07-31T04:36:43;4.45;;;3.60;;
9304;SDS011;4690;52.422;13.486;2023-07-31T04:39:09;7.25;;;3.97;;
9304;SDS011;4690;52.422;13.486;2023-07-31T04:41:35;6.00;;;4.20;;
9304;SDS011;4690;52.422;13.486;2023-07-31T04:44:01;5.70;;;4.00;;
9304;SDS011;4690;52.422;13.486;2023-07-31T04:46:28;7.50;;;4.78;;
9304;SDS011;4690;52.422;13.486;2023-07-31T04:48:55;7.28;;;4.18;;
9304;SDS011;4690;52.422;13.486;2023-07-31T04:51:21;5.93;;;4.32;;
9304;SDS011;4690;52.422;13.486;2023-07-31T04:53:48;7.43;;;3.97;;
9304;SDS011;4690;52.422;13.486;2023-07-31T04:56:14;7.90;;;4.10;;
9304;SDS011;4690;52.422;13.486;2023-07-31T04:58:41;6.93;;;4.47;;
9304;SDS011;4690;52.422;13.486;2023-07-31T05:01:07;7.53;;;3.97;;
9304;SDS011;4690;52.422;13.486;2023-07-31T05:03:32;6.13;;;3.90;;
9304;SDS011;4690;52.422;13.486;2023-07-31T05:05:58;6.47;;;3.90;;
9304;SDS011;4690;52.422;13.486;2023-07-31T05:08:24;6.38;;;3.90;;
9304;SDS011;4690;52.422;13.486;2023-07-31T05:10:50;8.48;;;4.18;;
9304;SDS011;4690;52.422;13.486;2023-07-31T05:13:15;5.43;;;3.90;;
9304;SDS011;4690;52.422;13.486;2023-07-31T05:15:41;6.68;;;4.22;;
9304;SDS011;4690;52.422;13.486;2023-07-31T05:18:07;4.82;;;4.00;;
9304;SDS011;4690;52.422;13.486;2023-07-31T05:20:33;5.15;;;4.03;;
9304;SDS011;4690;52.422;13.486;2023-07-31T05:22:58;6.05;;;4.00;;
9304;SDS011;4690;52.422;13.486;2023-07-31T05:25:24;7.43;;;3.70;;
9304;SDS011;4690;52.422;13.486;2023-07-31T05:27:50;6.78;;;3.95;;
9304;SDS011;4690;52.422;13.486;2023-07-31T05:30:15;6.28;;;3.70;;
9304;SDS011;4690;52.422;13.486;2023-07-31T05:32:41;7.00;;;3.97;;
9304;SDS011;4690;52.422;13.486;2023-07-31T05:35:07;6.22;;;3.70;;
9304;SDS011;4690;52.422;13.486;2023-07-31T05:37:34;4.72;;;3.75;;
9304;SDS011;4690;52.422;13.486;2023-07-31T05:39:59;5.43;;;3.67;;
9304;SDS011;4690;52.422;13.486;2023-07-31T05:42:25;4.18;;;3.60;;
9304;SDS011;4690;52.422;13.486;2023-07-31T05:44:51;6.88;;;3.70;;
9304;SDS011;4690;52.422;13.486;2023-07-31T05:47:17;7.63;;;3.53;;
9304;SDS011;4690;52.422;13.486;2023-07-31T05:49:42;5.10;;;3.17;;
9304;SDS011;4690;52.422;13.486;2023-07-31T05:52:09;4.47;;;3.45;;
9304;SDS011;4690;52.422;13.486;2023-07-31T05:54:35;6.15;;;3.38;;
9304;SDS011;4690;52.422;13.486;2023-07-31T05:57:00;7.38;;;3.65;;
9304;SDS011;4690;52.422;13.486;2023-07-31T05:59:26;5.20;;;3.47;;
9304;SDS011;4690;52.422;13.486;2023-07-31T06:01:52;5.50;;;3.63;;
9304;SDS011;4690;52.422;13.486;2023-07-31T06:04:18;5.13;;;3.50;;
9304;SDS011;4690;52.422;13.486;2023-07-31T06:06:44;5.63;;;3.42;;
9304;SDS011;4690;52.422;13.486;2023-07-31T06:09:09;4.97;;;3.60;;
9304;SDS011;4690;52.422;13.486;2023-07-31T06:11:36;7.35;;;3.58;;
9304;SDS011;4690;52.422;13.486;2023-07-31T06:14:02;4.85;;;3.20;;
9304;SDS011;4690;52.422;13.486;2023-07-31T06:16:28;6.65;;;3.92;;
9304;SDS011;4690;52.422;13.486;2023-07-31T06:18:53;5.15;;;3.50;;
9304;SDS011;4690;52.422;13.486;2023-07-31T06:21:19;6.93;;;3.70;;
9304;SDS011;4690;52.422;13.486;2023-07-31T06:23:45;7.18;;;3.75;;
9304;SDS011;4690;52.422;13.486;2023-07-31T06:26:11;5.63;;;3.75;;
9304;SDS011;4690;52.422;13.486;2023-07-31T06:28:36;6.05;;;3.65;;
9304;SDS011;4690;52.422;13.486;2023-07-31T06:31:02;6.75;;;3.47;;
9304;SDS011;4690;52.422;13.486;2023-07-31T06:33:28;8.45;;;4.10;;
9304;SDS011;4690;52.422;13.486;2023-07-31T06:35:54;7.07;;;3.75;;
9304;SDS011;4690;52.422;13.486;2023-07-31T06:38:22;6.55;;;3.80;;
9304;SDS011;4690;52.422;13.486;2023-07-31T06:40:50;5.32;;;3.55;;
9304;SDS011;4690;52.422;13.486;2023-07-31T06:43:16;7.22;;;3.58;;
9304;SDS011;4690;52.422;13.486;2023-07-31T06:45:42;8.60;;;4.10;;
9304;SDS011;4690;52.422;13.486;2023-07-31T06:48:08;6.97;;;4.95;;
9304;SDS011;4690;52.422;13.486;2023-07-31T06:50:34;7.65;;;3.80;;
9304;SDS011;4690;52.422;13.486;2023-07-31T06:53:00;5.80;;;3.88;;
9304;SDS011;4690;52.422;13.486;2023-07-31T06:55:26;5.82;;;3.70;;
9304;SDS011;4690;52.422;13.486;2023-07-31T06:57:53;6.22;;;3.85;;
9304;SDS011;4690;52.422;13.486;2023-07-31T07:00:21;5.63;;;4.18;;
9304;SDS011;4690;52.422;13.486;2023-07-31T07:02:48;4.85;;;3.72;;
9304;SDS011;4690;52.422;13.486;2023-07-31T07:05:15;10.65;;;4.13;;
9304;SDS011;4690;52.422;13.486;2023-07-31T07:07:42;6.95;;;3.97;;
9304;SDS011;4690;52.422;13.486;2023-07-31T07:10:09;7.13;;;3.88;;
9304;SDS011;4690;52.422;13.486;2023-07-31T07:12:35;6.72;;;3.75;;
9304;SDS011;4690;52.422;13.486;2023-07-31T07:15:01;4.78;;;3.67;;
9304;SDS011;4690;52.422;13.486;2023-07-31T07:17:28;7.25;;;3.70;;
9304;SDS011;4690;52.422;13.486;2023-07-31T07:19:56;6.25;;;4.10;;
9304;SDS011;4690;52.422;13.486;2023-07-31T07:22:23;9.63;;;3.92;;
9304;SDS011;4690;52.422;13.486;2023-07-31T07:24:49;6.65;;;3.83;;
9304;SDS011;4690;52.422;13.486;2023-07-31T07:27:15;5.25;;;3.90;;
9304;SDS011;4690;52.422;13.486;2023-07-31T07:29:41;7.68;;;4.28;;
9304;SDS011;4690;52.422;13.486;2023-07-31T07:32:07;5.15;;;3.65;;
9304;SDS011;4690;52.422;13.486;2023-07-31T07:34:33;6.47;;;3.80;;
9304;SDS011;4690;52.422;13.486;2023-07-31T07:36:58;5.25;;;4.13;;
9304;SDS011;4690;52.422;13.486;2023-07-31T07:39:24;6.75;;;3.78;;
9304;SDS011;4690;52.422;13.486;2023-07-31T07:41:50;6.88;;;3.95;;
9304;SDS011;4690;52.422;13.486;2023-07-31T07:44:16;5.03;;;3.88;;
9304;SDS011;4690;52.422;13.486;2023-07-31T07:46:42;6.50;;;3.85;;
9304;SDS011;4690;52.422;13.486;2023-07-31T07:49:08;6.70;;;3.88;;
9304;SDS011;4690;52.422;13.486;2023-07-31T07:51:34;4.68;;;3.70;;
9304;SDS011;4690;52.422;13.486;2023-07-31T07:53:59;5.32;;;3.90;;
9304;SDS011;4690;52.422;13.486;2023-07-31T07:56:26;6.38;;;4.00;;
9304;SDS011;4690;52.422;13.486;2023-07-31T07:58:52;7.45;;;3.80;;
9304;SDS011;4690;52.422;13.486;2023-07-31T08:01:19;4.80;;;3.58;;
9304;SDS011;4690;52.422;13.486;2023-07-31T08:03:45;7.38;;;3.70;;
9304;SDS011;4690;52.422;13.486;2023-07-31T08:06:12;5.75;;;3.75;;
9304;SDS011;4690;52.422;13.486;2023-07-31T08:08:39;3.85;;;3.53;;
9304;SDS011;4690;52.422;13.486;2023-07-31T08:11:06;4.97;;;3.67;;
9304;SDS011;4690;52.422;13.486;2023-07-31T08:13:32;6.32;;;3.58;;
9304;SDS011;4690;52.422;13.486;2023-07-31T08:15:57;5.15;;;3.97;;
9304;SDS011;4690;52.422;13.486;2023-07-31T08:18:23;4.18;;;3.45;;
9304;SDS011;4690;52.422;13.486;2023-07-31T08:20:49;7.07;;;4.28;;
9304;SDS011;4690;52.422;13.486;2023-07-31T08:23:15;5.40;;;4.25;;
9304;SDS011;4690;52.422;13.486;2023-07-31T08:25:40;7.20;;;4.25;;
9304;SDS011;4690;52.422;13.486;2023-07-31T08:28:06;5.15;;;4.03;;
9304;SDS011;4690;52.422;13.486;2023-07-31T08:30:32;4.72;;;4.10;;
9304;SDS011;4690;52.422;13.486;2023-07-31T08:32:59;5.15;;;4.20;;
9304;SDS011;4690;52.422;13.486;2023-07-31T08:35:25;9.20;;;4.22;;
9304;SDS011;4690;52.422;13.486;2023-07-31T08:37:53;5.80;;;4.25;;
9304;SDS011;4690;52.422;13.486;2023-07-31T08:40:19;6.15;;;4.35;;
9304;SDS011;4690;52.422;13.486;2023-07-31T08:42:47;4.95;;;4.10;;
9304;SDS011;4690;52.422;13.486;2023-07-31T08:45:16;9.88;;;4.13;;
9304;SDS011;4690;52.422;13.486;2023-07-31T08:47:51;5.25;;;4.13;;
9304;SDS011;4690;52.422;13.486;2023-07-31T08:50:18;6.22;;;4.13;;
9304;SDS011;4690;52.422;13.486;2023-07-31T08:52:46;6.65;;;3.70;;
9304;SDS011;4690;52.422;13.486;2023-07-31T08:55:14;8.43;;;4.13;;
9304;SDS011;4690;52.422;13.486;2023-07-31T08:57:41;4.35;;;3.95;;
9304;SDS011;4690;52.422;13.486;2023-07-31T09:00:08;6.10;;;3.70;;
9304;SDS011;4690;52.422;13.486;2023-07-31T09:05:31;6.03;;;3.40;;
9304;SDS011;4690;52.422;13.486;2023-07-31T09:07:57;3.63;;;3.33;;
9304;SDS011;4690;52.422;13.486;2023-07-31T09:10:23;3.70;;;2.85;;
9304;SDS011;4690;52.422;13.486;2023-07-31T09:12:52;3.40;;;2.85;;
9304;SDS011;4690;52.422;13.486;2023-07-31T09:15:18;5.25;;;2.95;;
9304;SDS011;4690;52.422;13.486;2023-07-31T09:17:46;3.30;;;2.70;;
9304;SDS011;4690;52.422;13.486;2023-07-31T09:20:16;3.33;;;2.60;;
9304;SDS011;4690;52.422;13.486;2023-07-31T09:22:45;3.47;;;2.55;;
9304;SDS011;4690;52.422;13.486;2023-07-31T09:27:59;2.92;;;2.10;;
9304;SDS011;4690;52.422;13.486;2023-07-31T09:30:30;2.00;;;1.90;;
9304;SDS011;4690;52.422;13.486;2023-07-31T09:33:10;3.05;;;2.08;;
9304;SDS011;4690;52.422;13.486;2023-07-31T09:35:35;3.15;;;2.03;;
9304;SDS011;4690;52.422;13.486;2023-07-31T09:40:36;1.58;;;1.48;;
9304;SDS011;4690;52.422;13.486;2023-07-31T09:43:04;1.65;;;1.50;;
9304;SDS011;4690;52.422;13.486;2023-07-31T09:45:35;2.30;;;1.70;;
9304;SDS011;4690;52.422;13.486;2023-07-31T09:48:06;1.63;;;1.52;;
9304;SDS011;4690;52.422;13.486;2023-07-31T09:50:34;4.95;;;1.70;;
9304;SDS011;4690;52.422;13.486;2023-07-31T09:53:07;2.08;;;1.98;;
9304;SDS011;4690;52.422;13.486;2023-07-31T09:55:34;3.00;;;2.60;;
9304;SDS011;4690;52.422;13.486;2023-07-31T09:58:09;3.47;;;2.75;;
9304;SDS011;4690;52.422;13.486;2023-07-31T10:00:36;4.22;;;3.05;;
9304;SDS011;4690;52.422;13.486;2023-07-31T10:03:06;7.32;;;3.03;;
9304;SDS011;4690;52.422;13.486;2023-07-31T10:05:53;5.28;;;3.10;;
9304;SDS011;4690;52.422;13.486;2023-07-31T10:08:23;5.18;;;2.90;;
9304;SDS011;4690;52.422;13.486;2023-07-31T10:10:55;4.07;;;2.97;;
9304;SDS011;4690;52.422;13.486;2023-07-31T10:13:25;5.15;;;3.63;;
9304;SDS011;4690;52.422;13.486;2023-07-31T10:15:56;4.18;;;3.28;;
9304;SDS011;4690;52.422;13.486;2023-07-31T10:18:26;6.45;;;3.63;;
9304;SDS011;4690;52.422;13.486;2023-07-31T10:20:53;5.40;;;3.42;;
9304;SDS011;4690;52.422;13.486;2023-07-31T14:11:39;4.82;;;3.17;;
9304;SDS011;4690;52.422;13.486;2023-07-31T14:14:04;4.90;;;3.58;;
9304;SDS011;4690;52.422;13.486;2023-07-31T14:16:30;5.93;;;3.78;;
9304;SDS011;4690;52.422;13.486;2023-07-31T14:18:56;5.90;;;3.65;;
9304;SDS011;4690;52.422;13.486;2023-07-31T14:21:24;5.28;;;3.67;;
9304;SDS011;4690;52.422;13.486;2023-07-31T14:23:51;6.70;;;3.53;;
9304;SDS011;4690;52.422;13.486;2023-07-31T14:26:17;4.45;;;3.65;;
9304;SDS011;4690;52.422;13.486;2023-07-31T14:28:42;7.30;;;3.72;;
9304;SDS011;4690;52.422;13.486;2023-07-31T14:31:08;4.82;;;3.92;;
9304;SDS011;4690;52.422;13.486;2023-07-31T14:33:34;5.38;;;3.30;;
9304;SDS011;4690;52.422;13.486;2023-07-31T14:36:00;6.05;;;3.45;;
9304;SDS011;4690;52.422;13.486;2023-07-31T14:38:26;7.47;;;3.53;;
9304;SDS011;4690;52.422;13.486;2023-07-31T14:40:52;5.07;;;3.40;;
9304;SDS011;4690;52.422;13.486;2023-07-31T14:43:17;3.97;;;3.55;;
9304;SDS011;4690;52.422;13.486;2023-07-31T14:45:43;4.40;;;3.40;;
9304;SDS011;4690;52.422;13.486;2023-07-31T14:48:11;5.43;;;3.60;;
9304;SDS011;4690;52.422;13.486;2023-07-31T14:50:37;4.30;;;3.10;;
9304;SDS011;4690;52.422;13.486;2023-07-31T14:53:03;4.70;;;3.42;;
9304;SDS011;4690;52.422;13.486;2023-07-31T14:55:28;5.47;;;3.60;;
9304;SDS011;4690;52.422;13.486;2023-07-31T14:57:54;7.10;;;3.83;;
9304;SDS011;4690;52.422;13.486;2023-07-31T15:00:20;4.82;;;3.35;;
9304;SDS011;4690;52.422;13.486;2023-07-31T15:02:46;3.53;;;3.22;;
9304;SDS011;4690;52.422;13.486;2023-07-31T15:05:11;4.85;;;3.60;;
9304;SDS011;4690;52.422;13.486;2023-07-31T15:07:37;3.97;;;3.50;;
9304;SDS011;4690;52.422;13.486;2023-07-31T15:10:03;4.03;;;3.45;;
9304;SDS011;4690;52.422;13.486;2023-07-31T15:12:30;4.05;;;3.40;;
9304;SDS011;4690;52.422;13.486;2023-07-31T15:14:56;5.75;;;3.60;;
9304;SDS011;4690;52.422;13.486;2023-07-31T15:17:22;3.63;;;3.17;;
9304;SDS011;4690;52.422;13.486;2023-07-31T15:19:49;3.65;;;3.28;;
9304;SDS011;4690;52.422;13.486;2023-07-31T15:22:14;4.07;;;3.33;;
9304;SDS011;4690;52.422;13.486;2023-07-31T15:24:40;4.20;;;3.58;;
9304;SDS011;4690;52.422;13.486;2023-07-31T15:27:06;3.83;;;3.30;;
9304;SDS011;4690;52.422;13.486;2023-07-31T15:29:33;4.85;;;3.50;;
9304;SDS011;4690;52.422;13.486;2023-07-31T15:32:01;3.50;;;3.20;;
9304;SDS011;4690;52.422;13.486;2023-07-31T15:34:30;4.07;;;3.20;;
9304;SDS011;4690;52.422;13.486;2023-07-31T15:36:56;3.80;;;3.40;;
9304;SDS011;4690;52.422;13.486;2023-07-31T15:39:22;4.38;;;3.78;;
9304;SDS011;4690;52.422;13.486;2023-07-31T15:41:48;3.58;;;3.28;;
9304;SDS011;4690;52.422;13.486;2023-07-31T15:44:14;4.32;;;3.28;;
9304;SDS011;4690;52.422;13.486;2023-07-31T15:46:39;4.20;;;3.60;;
9304;SDS011;4690;52.422;13.486;2023-07-31T15:49:05;5.65;;;3.55;;
9304;SDS011;4690;52.422;13.486;2023-07-31T15:51:32;3.55;;;3.17;;
9304;SDS011;4690;52.422;13.486;2023-07-31T15:53:58;5.15;;;3.63;;
9304;SDS011;4690;52.422;13.486;2023-07-31T15:56:24;4.75;;;3.90;;
9304;SDS011;4690;52.422;13.486;2023-07-31T15:58:50;5.10;;;3.60;;
9304;SDS011;4690;52.422;13.486;2023-07-31T16:01:16;4.20;;;3.47;;
9304;SDS011;4690;52.422;13.486;2023-07-31T16:03:42;5.85;;;3.70;;
9304;SDS011;4690;52.422;13.486;2023-07-31T16:06:08;3.85;;;3.45;;
9304;SDS011;4690;52.422;13.486;2023-07-31T16:08:34;8.68;;;4.10;;
9304;SDS011;4690;52.422;13.486;2023-07-31T16:11:06;5.47;;;3.70;;
9304;SDS011;4690;52.422;13.486;2023-07-31T16:13:33;4.70;;;3.65;;
9304;SDS011;4690;52.422;13.486;2023-07-31T16:15:59;4.78;;;3.30;;
9304;SDS011;4690;52.422;13.486;2023-07-31T16:18:24;5.00;;;3.20;;
9304;SDS011;4690;52.422;13.486;2023-07-31T16:20:50;4.43;;;3.10;;
9304;SDS011;4690;52.422;13.486;2023-07-31T16:23:16;5.20;;;3.50;;
9304;SDS011;4690;52.422;13.486;2023-07-31T16:25:41;4.20;;;3.22;;
9304;SDS011;4690;52.422;13.486;2023-07-31T16:28:07;4.35;;;3.45;;
9304;SDS011;4690;52.422;13.486;2023-07-31T16:30:33;6.82;;;3.60;;
9304;SDS011;4690;52.422;13.486;2023-07-31T16:33:00;3.80;;;3.28;;
9304;SDS011;4690;52.422;13.486;2023-07-31T16:35:25;5.35;;;3.50;;
9304;SDS011;4690;52.422;13.486;2023-07-31T16:37:51;3.72;;;3.28;;
9304;SDS011;4690;52.422;13.486;2023-07-31T16:40:17;4.65;;;3.20;;
9304;SDS011;4690;52.422;13.486;2023-07-31T16:42:42;5.10;;;3.00;;
9304;SDS011;4690;52.422;13.486;2023-07-31T16:45:08;3.88;;;3.20;;
9304;SDS011;4690;52.422;13.486;2023-07-31T16:47:34;5.88;;;3.13;;
9304;SDS011;4690;52.422;13.486;2023-07-31T16:50:00;4.72;;;3.15;;
9304;SDS011;4690;52.422;13.486;2023-07-31T16:52:26;3.92;;;3.33;;
9304;SDS011;4690;52.422;13.486;2023-07-31T16:54:52;4.65;;;3.15;;
9304;SDS011;4690;52.422;13.486;2023-07-31T16:57:18;3.67;;;3.15;;
9304;SDS011;4690;52.422;13.486;2023-07-31T16:59:44;6.70;;;4.07;;
9304;SDS011;4690;52.422;13.486;2023-07-31T17:02:10;4.75;;;3.35;;
9304;SDS011;4690;52.422;13.486;2023-07-31T17:04:36;3.47;;;3.00;;
9304;SDS011;4690;52.422;13.486;2023-07-31T17:07:02;3.05;;;2.75;;
9304;SDS011;4690;52.422;13.486;2023-07-31T17:09:28;3.22;;;2.63;;
9304;SDS011;4690;52.422;13.486;2023-07-31T17:11:54;5.13;;;3.28;;
9304;SDS011;4690;52.422;13.486;2023-07-31T17:14:20;4.03;;;3.10;;
9304;SDS011;4690;52.422;13.486;2023-07-31T17:16:46;3.42;;;2.85;;
9304;SDS011;4690;52.422;13.486;2023-07-31T17:19:11;5.38;;;2.72;;
9304;SDS011;4690;52.422;13.486;2023-07-31T17:21:37;4.05;;;2.88;;
9304;SDS011;4690;52.422;13.486;2023-07-31T17:24:03;4.10;;;2.80;;
9304;SDS011;4690;52.422;13.486;2023-07-31T17:26:29;3.20;;;2.92;;
9304;SDS011;4690;52.422;13.486;2023-07-31T17:28:54;4.72;;;2.95;;
9304;SDS011;4690;52.422;13.486;2023-07-31T17:31:20;3.42;;;2.63;;
9304;SDS011;4690;52.422;13.486;2023-07-31T17:33:46;3.85;;;2.80;;
9304;SDS011;4690;52.422;13.486;2023-07-31T17:36:12;4.25;;;2.53;;
9304;SDS011;4690;52.422;13.486;2023-07-31T17:38:38;3.83;;;2.78;;
9304;SDS011;4690;52.422;13.486;2023-07-31T17:41:04;4.97;;;2.80;;
9304;SDS011;4690;52.422;13.486;2023-07-31T17:43:30;3.28;;;2.47;;
9304;SDS011;4690;52.422;13.486;2023-07-31T17:45:56;4.70;;;2.83;;
9304;SDS011;4690;52.422;13.486;2023-07-31T17:48:22;2.75;;;2.50;;
9304;SDS011;4690;52.422;13.486;2023-07-31T17:50:49;4.53;;;2.53;;
9304;SDS011;4690;52.422;13.486;2023-07-31T17:53:21;3.75;;;2.75;;
9304;SDS011;4690;52.422;13.486;2023-07-31T17:55:47;3.13;;;2.47;;
9304;SDS011;4690;52.422;13.486;2023-07-31T17:58:13;3.78;;;2.30;;
9304;SDS011;4690;52.422;13.486;2023-07-31T18:00:39;3.35;;;2.30;;
9304;SDS011;4690;52.422;13.486;2023-07-31T18:03:06;3.17;;;2.40;;
9304;SDS011;4690;52.422;13.486;2023-07-31T18:05:37;2.15;;;2.03;;
9304;SDS011;4690;52.422;13.486;2023-07-31T18:08:03;3.88;;;2.40;;
9304;SDS011;4690;52.422;13.486;2023-07-31T18:10:29;2.83;;;2.42;;
9304;SDS011;4690;52.422;13.486;2023-07-31T18:12:55;2.70;;;2.33;;
9304;SDS011;4690;52.422;13.486;2023-07-31T18:15:20;3.33;;;2.58;;
9304;SDS011;4690;52.422;13.486;2023-07-31T18:17:46;3.13;;;2.63;;
9304;SDS011;4690;52.422;13.486;2023-07-31T18:20:13;5.03;;;2.70;;
9304;SDS011;4690;52.422;13.486;2023-07-31T18:22:40;3.03;;;2.47;;
9304;SDS011;4690;52.422;13.486;2023-07-31T18:25:06;5.10;;;2.67;;
9304;SDS011;4690;52.422;13.486;2023-07-31T18:27:34;5.00;;;2.58;;
9304;SDS011;4690;52.422;13.486;2023-07-31T18:30:00;3.33;;;2.67;;
9304;SDS011;4690;52.422;13.486;2023-07-31T18:32:26;2.55;;;2.30;;
9304;SDS011;4690;52.422;13.486;2023-07-31T18:34:52;3.15;;;2.85;;
9304;SDS011;4690;52.422;13.486;2023-07-31T18:37:17;4.80;;;3.05;;
9304;SDS011;4690;52.422;13.486;2023-07-31T18:39:43;2.95;;;2.60;;
9304;SDS011;4690;52.422;13.486;2023-07-31T18:42:09;4.97;;;2.92;;
9304;SDS011;4690;52.422;13.486;2023-07-31T18:44:34;3.83;;;3.00;;
9304;SDS011;4690;52.422;13.486;2023-07-31T18:47:01;4.95;;;2.70;;
9304;SDS011;4690;52.422;13.486;2023-07-31T18:49:27;3.10;;;2.70;;
9304;SDS011;4690;52.422;13.486;2023-07-31T18:51:52;4.53;;;3.10;;
9304;SDS011;4690;52.422;13.486;2023-07-31T18:54:18;2.90;;;2.70;;
9304;SDS011;4690;52.422;13.486;2023-07-31T18:56:44;2.97;;;2.70;;
9304;SDS011;4690;52.422;13.486;2023-07-31T18:59:10;4.13;;;3.03;;
9304;SDS011;4690;52.422;13.486;2023-07-31T19:01:35;3.97;;;2.78;;
9304;SDS011;4690;52.422;13.486;2023-07-31T19:04:01;5.07;;;3.20;;